createdAt,value
2023-06-13T17:06:45.613Z,3.25
2023-06-13T17:08:51.116Z,2.95
2023-06-13T17:10:56.512Z,3.67
2023-06-13T17:13:02.133Z,3.60
2023-06-13T17:15:08.497Z,3.47
2023-06-13T17:17:13.994Z,3.70
2023-06-13T17:19:21.142Z,2.90
2023-06-13T17:23:34.208Z,3.30
2023-06-13T17:25:41.152Z,3.72
2023-06-13T17:27:46.813Z,3.88
2023-06-13T17:29:52.194Z,3.38
2023-06-13T17:31:57.685Z,3.40
2023-06-13T17:34:04.090Z,3.60
2023-06-13T17:36:10.160Z,3.72
2023-06-13T17:38:17.419Z,4.07
2023-06-13T17:40:26.429Z,3.58
2023-06-13T17:42:31.774Z,3.45
2023-06-13T17:44:37.387Z,3.50
2023-06-13T17:46:42.962Z,3.70
2023-06-13T17:48:48.485Z,3.60
2023-06-13T17:50:53.878Z,3.95
2023-06-13T17:52:59.207Z,3.65
2023-06-13T17:55:05.371Z,3.72
2023-06-13T17:57:13.960Z,4.00
2023-06-13T17:59:20.333Z,3.65
2023-06-13T18:01:26.090Z,3.60
2023-06-13T18:03:31.679Z,3.97
2023-06-13T18:05:37.164Z,3.83
2023-06-13T18:07:42.699Z,3.50
2023-06-13T18:09:48.888Z,3.58
2023-06-13T18:11:59.232Z,3.30
2023-06-13T18:14:09.933Z,3.80
2023-06-13T18:16:15.701Z,3.78
2023-06-13T18:18:21.277Z,3.70
2023-06-13T18:20:26.958Z,3.92
2023-06-13T18:22:32.636Z,3.83
2023-06-13T18:24:38.058Z,3.78
2023-06-13T18:26:43.440Z,4.40
2023-06-13T18:28:48.800Z,3.65
2023-06-13T18:30:57.407Z,3.70
2023-06-13T18:33:02.920Z,4.28
2023-06-13T18:35:09.298Z,3.90
2023-06-13T18:37:14.631Z,3.38
2023-06-13T18:39:20.042Z,4.00
2023-06-13T18:41:25.607Z,3.70
2023-06-13T18:43:31.467Z,4.25
2023-06-13T18:45:37.128Z,3.90
2023-06-13T18:47:45.730Z,3.70
2023-06-13T18:49:51.602Z,3.83
2023-06-13T18:51:57.956Z,3.90
2023-06-13T18:54:03.573Z,4.33
2023-06-13T18:56:09.814Z,3.60
2023-06-13T18:58:16.072Z,3.78
2023-06-13T19:00:22.761Z,3.97
2023-06-13T19:02:28.226Z,3.90
2023-06-13T19:04:38.389Z,4.20
2023-06-13T19:06:44.540Z,3.88
2023-06-13T19:08:51.309Z,3.97
2023-06-13T19:10:57.250Z,3.78
2023-06-13T19:13:02.574Z,3.70
2023-06-13T19:15:10.153Z,3.97
2023-06-13T19:19:20.796Z,3.90
2023-06-13T19:21:28.852Z,3.80
2023-06-13T19:23:34.303Z,4.15
2023-06-13T19:25:39.806Z,3.95
2023-06-13T19:27:45.698Z,4.65
2023-06-13T19:29:51.243Z,3.75
2023-06-13T19:31:57.175Z,4.13
2023-06-13T19:34:02.711Z,3.75
2023-06-13T19:36:10.148Z,3.85
2023-06-13T19:38:20.801Z,4.38
2023-06-13T19:40:26.567Z,3.95
2023-06-13T19:42:32.690Z,3.95
2023-06-13T19:44:38.024Z,4.10
2023-06-13T19:46:43.386Z,3.88
2023-06-13T19:48:48.829Z,3.83
2023-06-13T19:51:06.332Z,4.00
2023-06-13T19:53:25.599Z,4.00
2023-06-13T19:55:31.477Z,4.15
2023-06-13T19:57:39.844Z,4.00
2023-06-13T19:59:45.262Z,3.88
2023-06-13T20:01:51.996Z,4.82
2023-06-13T20:03:58.235Z,4.70
2023-06-13T20:06:05.831Z,5.17
2023-06-13T20:10:19.838Z,5.15
2023-06-13T20:12:25.831Z,5.72
2023-06-13T20:14:31.484Z,5.20
2023-06-13T20:16:37.784Z,5.20
2023-06-13T20:18:43.609Z,4.97
2023-06-13T20:20:48.962Z,5.18
2023-06-13T20:22:54.672Z,5.50
2023-06-13T20:25:00.053Z,4.20
2023-06-13T20:27:08.523Z,5.00
2023-06-13T20:29:13.900Z,4.50
2023-06-13T20:31:19.540Z,4.50
2023-06-13T20:33:25.402Z,4.00
2023-06-13T20:35:32.150Z,4.60
2023-06-13T20:37:37.632Z,5.00
2023-06-13T20:39:43.215Z,5.38
2023-06-13T20:41:49.481Z,6.03
2023-06-13T20:43:58.204Z,4.90
2023-06-13T20:46:03.757Z,4.80
2023-06-13T20:48:09.736Z,5.57
2023-06-13T20:50:15.855Z,5.45
2023-06-13T20:52:21.619Z,5.15
2023-06-13T20:54:28.593Z,5.78
2023-06-13T20:56:34.042Z,4.78
2023-06-13T20:58:40.472Z,5.28
2023-06-13T21:00:55.175Z,5.18
2023-06-13T21:03:02.957Z,5.30
2023-06-13T21:05:09.677Z,4.70
2023-06-13T21:07:17.543Z,4.80
2023-06-13T21:09:26.670Z,4.85
2023-06-13T21:11:32.204Z,4.82
2023-06-13T21:13:38.066Z,4.90
2023-06-13T21:15:46.625Z,4.97
2023-06-13T21:17:56.500Z,4.53
2023-06-13T21:20:02.388Z,4.95
2023-06-13T21:22:08.737Z,5.07
2023-06-13T21:24:14.645Z,4.57
2023-06-13T21:26:19.970Z,4.68
2023-06-13T21:28:25.333Z,4.60
2023-06-13T21:30:30.756Z,4.53
2023-06-13T21:32:36.896Z,5.30
2023-06-13T21:34:45.991Z,4.68
2023-06-13T21:36:53.433Z,5.15
2023-06-13T21:38:59.120Z,5.00
2023-06-13T21:41:04.610Z,5.13
2023-06-13T21:43:10.175Z,4.63
2023-06-13T21:45:30.219Z,5.20
2023-06-13T21:47:37.947Z,4.78
2023-06-13T21:49:46.457Z,4.28
2023-06-13T21:51:52.259Z,4.50
2023-06-13T21:53:57.951Z,4.40
2023-06-13T21:56:03.569Z,4.40
2023-06-13T21:58:09.279Z,4.93
2023-06-13T22:00:17.579Z,5.07
2023-06-13T22:02:23.518Z,5.28
2023-06-13T22:04:29.572Z,5.63
2023-06-13T22:06:40.409Z,5.18
2023-06-13T22:08:45.829Z,5.70
2023-06-13T22:10:51.209Z,5.00
2023-06-13T22:12:57.701Z,5.20
2023-06-13T22:15:03.626Z,5.70
2023-06-13T22:17:09.752Z,5.38
2023-06-13T22:19:15.971Z,5.57
2023-06-13T22:21:22.760Z,5.18
2023-06-13T22:23:30.725Z,5.30
2023-06-13T22:25:36.344Z,5.57
2023-06-13T22:27:41.878Z,5.57
2023-06-13T22:29:47.629Z,5.53
2023-06-13T22:31:53.369Z,5.28
2023-06-13T22:33:58.982Z,5.60
2023-06-13T22:36:04.659Z,5.25
2023-06-13T22:38:10.074Z,5.13
2023-06-13T22:40:19.512Z,5.70
2023-06-13T22:42:25.238Z,5.63
2023-06-13T22:44:30.968Z,6.15
2023-06-13T22:46:37.226Z,5.72
2023-06-13T22:48:43.066Z,5.43
2023-06-13T22:50:49.476Z,5.50
2023-06-13T22:52:55.167Z,5.20
2023-06-13T22:55:01.543Z,6.28
2023-06-13T22:57:10.137Z,6.28
2023-06-13T22:59:15.881Z,5.75
2023-06-13T23:01:21.694Z,6.47
2023-06-13T23:03:28.296Z,6.05
2023-06-13T23:05:34.034Z,7.20
2023-06-13T23:07:42.530Z,5.55
2023-06-13T23:09:48.342Z,5.68
2023-06-13T23:11:54.053Z,5.72
2023-06-13T23:14:02.007Z,5.80
2023-06-13T23:16:08.662Z,6.22
2023-06-13T23:18:14.100Z,5.88
2023-06-13T23:20:20.321Z,5.72
2023-06-13T23:22:26.095Z,6.15
2023-06-13T23:24:31.580Z,5.85
2023-06-13T23:26:39.909Z,6.25
2023-06-13T23:28:47.460Z,5.25
2023-06-13T23:30:58.502Z,5.55
2023-06-13T23:33:04.524Z,5.65
2023-06-13T23:35:14.049Z,5.47
2023-06-13T23:37:22.084Z,5.57
2023-06-13T23:41:37.689Z,5.43
2023-06-13T23:43:47.729Z,5.43
2023-06-13T23:45:57.110Z,6.35
2023-06-13T23:48:04.082Z,5.78
2023-06-13T23:50:10.561Z,6.45
2023-06-13T23:52:16.470Z,5.72
2023-06-13T23:54:22.743Z,6.57
2023-06-13T23:56:28.327Z,6.15
2023-06-13T23:58:33.659Z,6.03
